createdAt,value
2017-08-19T00:01:47.379Z,15.00
2017-08-19T00:04:16.202Z,14.90
2017-08-19T00:06:44.507Z,14.90
2017-08-19T00:09:12.742Z,14.90
2017-08-19T00:11:41.083Z,15.00
2017-08-19T00:14:09.393Z,15.10
2017-08-19T00:16:37.670Z,15.10
2017-08-19T00:19:05.913Z,15.10
2017-08-19T00:21:35.256Z,15.00
2017-08-19T00:24:03.487Z,15.00
2017-08-19T00:26:31.766Z,15.00
2017-08-19T00:29:00.795Z,15.00
2017-08-19T00:31:29.056Z,15.00
2017-08-19T00:33:57.336Z,15.10
2017-08-19T00:36:25.641Z,15.20
2017-08-19T00:38:53.919Z,15.20
2017-08-19T00:41:22.237Z,15.20
2017-08-19T00:43:51.302Z,15.00
2017-08-19T00:46:19.664Z,15.00
2017-08-19T00:48:47.916Z,15.00
2017-08-19T00:51:16.220Z,15.00
2017-08-19T00:53:44.624Z,14.90
2017-08-19T00:56:12.911Z,14.90
2017-08-19T00:58:41.227Z,14.90
2017-08-19T01:01:10.285Z,14.90
2017-08-19T01:03:38.605Z,14.90
2017-08-19T01:06:07.885Z,14.90
2017-08-19T01:08:36.980Z,14.90
2017-08-19T01:11:05.359Z,14.80
2017-08-19T01:13:34.456Z,14.70
2017-08-19T01:16:03.520Z,14.70
2017-08-19T01:18:31.818Z,14.70
2017-08-19T01:21:00.148Z,14.70
2017-08-19T01:23:28.434Z,14.70
2017-08-19T01:28:57.558Z,14.60
2017-08-19T01:31:25.853Z,14.60
2017-08-19T01:33:54.163Z,14.70
2017-08-19T01:36:22.430Z,14.60
2017-08-19T01:38:50.724Z,14.60
2017-08-19T01:41:18.946Z,14.60
2017-08-19T01:43:47.219Z,14.60
2017-08-19T01:46:15.469Z,14.70
2017-08-19T01:48:43.770Z,14.70
2017-08-19T01:51:12.027Z,14.60
2017-08-19T01:53:40.323Z,14.60
2017-08-19T01:56:08.652Z,14.60
2017-08-19T01:58:37.299Z,14.60
2017-08-19T02:01:05.602Z,14.60
2017-08-19T02:03:33.884Z,14.50
2017-08-19T02:06:02.932Z,14.30
2017-08-19T02:08:31.240Z,14.20
2017-08-19T02:10:59.485Z,14.20
2017-08-19T02:13:27.733Z,14.20
2017-08-19T02:15:56.730Z,13.90
2017-08-19T02:18:25.033Z,13.90
2017-08-19T02:20:53.394Z,14.00
2017-08-19T02:23:21.698Z,14.00
2017-08-19T02:25:49.991Z,13.90
2017-08-19T02:28:18.332Z,13.90
2017-08-19T02:30:46.602Z,13.90
2017-08-19T02:33:14.886Z,13.90
2017-08-19T02:35:43.934Z,13.70
2017-08-19T02:38:12.224Z,13.70
2017-08-19T02:40:40.507Z,13.70
2017-08-19T02:43:08.749Z,13.70
2017-08-19T02:45:36.984Z,13.70
2017-08-19T02:48:05.321Z,13.70
2017-08-19T02:50:33.577Z,13.70
2017-08-19T02:53:01.880Z,13.70
2017-08-19T02:55:30.169Z,13.70
2017-08-19T02:57:58.431Z,13.70
2017-08-19T03:00:26.754Z,13.70
2017-08-19T03:02:54.973Z,13.70
2017-08-19T03:05:23.339Z,13.70
2017-08-19T03:07:51.610Z,13.60
2017-08-19T03:10:19.875Z,13.50
2017-08-19T03:12:48.211Z,13.50
2017-08-19T03:15:17.257Z,13.30
2017-08-19T03:17:45.586Z,13.30
2017-08-19T03:20:13.902Z,13.30
2017-08-19T03:22:42.140Z,13.30
2017-08-19T03:25:10.417Z,13.20
2017-08-19T03:27:38.718Z,13.30
2017-08-19T03:30:06.995Z,13.20
2017-08-19T03:32:36.052Z,13.30
2017-08-19T03:35:04.467Z,13.30
2017-08-19T03:37:32.786Z,13.40
2017-08-19T03:40:01.089Z,13.40
2017-08-19T03:42:29.433Z,13.30
2017-08-19T03:44:57.700Z,13.30
2017-08-19T03:47:25.989Z,13.30
2017-08-19T03:49:54.346Z,13.30
2017-08-19T03:52:23.338Z,13.30
2017-08-19T03:54:51.734Z,13.30
2017-08-19T03:57:20.746Z,13.30
2017-08-19T03:59:49.019Z,13.30
2017-08-19T04:02:18.058Z,13.30
2017-08-19T04:04:46.311Z,13.20
2017-08-19T04:07:14.646Z,13.20
2017-08-19T04:09:43.699Z,13.30
2017-08-19T04:12:12.053Z,13.30
2017-08-19T04:14:40.322Z,13.20
2017-08-19T04:17:08.623Z,13.20
2017-08-19T04:19:36.879Z,13.10
2017-08-19T04:22:06.057Z,13.10
2017-08-19T04:24:35.078Z,13.10
2017-08-19T04:27:03.416Z,13.10
2017-08-19T04:29:32.487Z,13.00
2017-08-19T04:32:00.757Z,13.00
2017-08-19T04:34:29.853Z,13.00
2017-08-19T04:36:58.130Z,13.00
2017-08-19T04:39:26.483Z,13.00
2017-08-19T04:41:54.775Z,12.90
2017-08-19T04:44:23.098Z,12.90
2017-08-19T04:46:52.133Z,13.00
2017-08-19T04:49:20.448Z,13.00
2017-08-19T04:51:48.731Z,13.10
2017-08-19T04:54:17.764Z,13.10
2017-08-19T04:56:46.031Z,13.10
2017-08-19T04:59:14.700Z,13.20
2017-08-19T05:01:42.927Z,13.20
2017-08-19T05:04:11.222Z,13.20
2017-08-19T05:06:39.469Z,13.30
2017-08-19T05:09:07.766Z,13.40
2017-08-19T05:11:36.064Z,13.40
2017-08-19T05:14:04.338Z,13.50
2017-08-19T05:16:32.624Z,13.50
2017-08-19T05:19:00.918Z,13.60
2017-08-19T05:21:29.225Z,13.60
2017-08-19T05:23:57.547Z,13.60
2017-08-19T05:26:25.794Z,13.70
2017-08-19T05:28:54.074Z,13.70
2017-08-19T05:31:22.396Z,13.80
2017-08-19T05:33:50.630Z,13.90
2017-08-19T05:36:18.973Z,13.80
2017-08-19T05:38:47.969Z,14.10
2017-08-19T05:41:16.246Z,14.10
2017-08-19T05:43:45.313Z,14.50
2017-08-19T05:46:13.587Z,14.50
2017-08-19T05:48:41.862Z,14.60
2017-08-19T05:51:10.165Z,14.60
2017-08-19T05:53:39.265Z,14.30
2017-08-19T05:56:07.571Z,14.30
2017-08-19T05:58:35.845Z,14.20
2017-08-19T06:01:04.105Z,14.30
2017-08-19T06:03:32.350Z,14.60
2017-08-19T06:06:00.644Z,14.60
2017-08-19T06:08:28.894Z,14.60
2017-08-19T06:10:57.137Z,14.70
2017-08-19T06:13:25.417Z,14.80
2017-08-19T06:15:53.686Z,14.80
2017-08-19T06:18:21.994Z,14.80
2017-08-19T06:20:50.361Z,14.90
2017-08-19T06:23:18.615Z,15.00
2017-08-19T06:25:46.893Z,15.10
2017-08-19T06:28:15.142Z,15.30
2017-08-19T06:30:44.184Z,15.40
2017-08-19T06:33:12.571Z,15.40
2017-08-19T06:35:40.851Z,15.30
2017-08-19T06:38:09.066Z,15.40
2017-08-19T06:40:38.156Z,15.40
2017-08-19T06:43:06.524Z,15.40
2017-08-19T06:45:34.889Z,15.40
2017-08-19T06:48:03.137Z,15.50
2017-08-19T06:50:31.414Z,15.60
2017-08-19T06:52:59.742Z,15.30
2017-08-19T06:55:27.998Z,15.40
2017-08-19T06:57:56.258Z,15.40
2017-08-19T07:00:24.539Z,15.50
2017-08-19T07:02:53.615Z,15.50
2017-08-19T07:05:21.939Z,15.50
2017-08-19T07:07:50.160Z,15.50
2017-08-19T07:10:18.445Z,15.60
2017-08-19T07:12:46.752Z,15.50
2017-08-19T07:15:14.995Z,15.40
2017-08-19T07:17:43.300Z,15.30
2017-08-19T07:20:11.612Z,15.10
2017-08-19T07:22:39.873Z,15.30
2017-08-19T07:25:08.129Z,15.20
2017-08-19T07:27:36.396Z,15.20
2017-08-19T07:30:04.663Z,15.40
2017-08-19T07:32:32.906Z,15.60
2017-08-19T07:35:01.978Z,15.60
2017-08-19T07:37:30.236Z,15.60
2017-08-19T07:39:58.495Z,15.60
2017-08-19T07:42:26.802Z,15.60
2017-08-19T07:44:55.295Z,15.70
2017-08-19T07:47:23.555Z,15.80
2017-08-19T07:49:51.910Z,15.90
2017-08-19T07:52:20.170Z,15.80
2017-08-19T07:54:49.201Z,16.20
2017-08-19T07:57:17.506Z,16.20
2017-08-19T07:59:45.782Z,16.40
2017-08-19T08:02:14.059Z,16.40
2017-08-19T08:04:42.284Z,16.40
2017-08-19T08:07:10.551Z,16.40
2017-08-19T08:09:39.581Z,16.80
2017-08-19T08:12:07.889Z,16.80
2017-08-19T08:14:36.185Z,16.80
2017-08-19T08:17:04.433Z,17.10
2017-08-19T08:19:32.662Z,17.40
2017-08-19T08:22:00.930Z,17.30
2017-08-19T08:24:29.937Z,17.10
2017-08-19T08:26:58.233Z,17.10
2017-08-19T08:29:26.528Z,17.10
2017-08-19T08:31:54.805Z,17.40
2017-08-19T08:34:23.081Z,17.80
2017-08-19T08:36:51.523Z,17.80
2017-08-19T08:39:19.770Z,17.80
2017-08-19T08:41:49.120Z,17.20
2017-08-19T08:44:17.421Z,17.20
2017-08-19T08:46:45.661Z,17.40
2017-08-19T08:49:13.916Z,17.50
2017-08-19T08:51:42.939Z,17.40
2017-08-19T08:54:11.198Z,17.30
2017-08-19T08:56:39.496Z,17.50
2017-08-19T08:59:07.743Z,17.50
2017-08-19T09:01:36.791Z,17.70
2017-08-19T09:04:05.127Z,17.70
2017-08-19T09:06:33.339Z,17.80
2017-08-19T09:09:01.613Z,18.10
2017-08-19T09:11:29.926Z,18.00
2017-08-19T09:13:58.182Z,18.20
2017-08-19T09:16:26.455Z,18.10
2017-08-19T09:18:54.728Z,18.10
2017-08-19T09:21:23.024Z,17.80
2017-08-19T09:23:51.296Z,17.70
2017-08-19T09:26:19.574Z,17.80
2017-08-19T09:28:47.817Z,17.90
2017-08-19T09:31:16.159Z,18.00
2017-08-19T09:33:44.432Z,18.10
2017-08-19T09:36:12.715Z,18.10
2017-08-19T09:38:41.767Z,17.90
2017-08-19T09:41:10.051Z,17.90
2017-08-19T09:43:38.367Z,17.90
2017-08-19T09:46:06.681Z,18.10
2017-08-19T09:48:35.776Z,18.70
2017-08-19T09:51:04.803Z,18.50
2017-08-19T09:53:33.041Z,18.40
2017-08-19T09:56:01.289Z,18.50
2017-08-19T09:58:30.306Z,18.30
2017-08-19T10:00:58.601Z,18.30
2017-08-19T10:03:27.505Z,18.40
2017-08-19T10:05:55.751Z,18.10
2017-08-19T10:08:35.890Z,17.90
2017-08-19T10:11:16.017Z,17.90
2017-08-19T10:13:44.305Z,17.90
2017-08-19T10:16:12.710Z,17.60
2017-08-19T10:18:41.031Z,17.50
2017-08-19T10:21:09.334Z,17.60
2017-08-19T10:23:38.166Z,17.80
2017-08-19T10:26:07.309Z,18.30
2017-08-19T10:28:35.550Z,18.30
2017-08-19T10:31:03.876Z,18.50
2017-08-19T10:33:33.003Z,18.80
2017-08-19T10:36:02.074Z,18.60
2017-08-19T10:38:30.334Z,18.60
2017-08-19T10:40:58.624Z,18.50
2017-08-19T10:43:27.049Z,18.20
2017-08-19T10:45:55.282Z,17.90
2017-08-19T10:48:23.612Z,18.00
2017-08-19T10:50:51.895Z,18.20
2017-08-19T10:53:20.170Z,18.30
2017-08-19T10:55:48.465Z,18.70
2017-08-19T10:58:16.981Z,19.10
2017-08-19T11:00:45.287Z,19.30
2017-08-19T11:03:13.579Z,19.40
2017-08-19T11:05:41.875Z,19.10
2017-08-19T11:08:10.240Z,19.20
2017-08-19T11:10:38.563Z,19.60
2017-08-19T11:13:06.862Z,19.40
2017-08-19T11:15:35.102Z,19.50
2017-08-19T11:18:04.206Z,19.70
2017-08-19T11:20:32.448Z,19.70
2017-08-19T11:23:00.761Z,19.50
2017-08-19T11:25:29.012Z,19.20
2017-08-19T11:27:57.291Z,18.90
2017-08-19T11:30:25.525Z,18.50
2017-08-19T11:32:54.719Z,18.50
2017-08-19T11:35:22.966Z,18.60
2017-08-19T11:37:51.295Z,18.20
2017-08-19T11:40:19.725Z,18.30
2017-08-19T11:42:48.093Z,18.20
2017-08-19T11:45:16.340Z,18.20
2017-08-19T11:47:44.635Z,18.40
2017-08-19T11:50:12.999Z,18.60
2017-08-19T11:52:41.299Z,18.80
2017-08-19T11:55:09.622Z,18.60
2017-08-19T11:57:37.947Z,18.60
2017-08-19T12:00:06.212Z,18.60
2017-08-19T12:02:34.646Z,18.90
2017-08-19T12:05:02.928Z,19.10
2017-08-19T12:07:31.189Z,19.30
2017-08-19T12:09:59.426Z,19.60
2017-08-19T12:12:27.735Z,19.90
2017-08-19T12:14:55.993Z,20.00
2017-08-19T12:17:24.258Z,19.80
2017-08-19T12:19:53.120Z,19.30
2017-08-19T12:22:21.376Z,19.40
2017-08-19T12:24:49.650Z,19.60
2017-08-19T12:27:17.901Z,19.50
2017-08-19T12:29:46.186Z,19.10
2017-08-19T12:32:14.424Z,19.10
2017-08-19T12:34:42.781Z,19.30
2017-08-19T12:37:11.865Z,19.10
2017-08-19T12:39:40.081Z,19.00
2017-08-19T12:42:08.398Z,19.40
2017-08-19T12:44:36.650Z,19.40
2017-08-19T12:47:04.917Z,19.40
2017-08-19T12:49:33.188Z,19.40
2017-08-19T12:52:01.471Z,19.30
2017-08-19T12:54:29.886Z,19.30
2017-08-19T12:56:58.237Z,19.30
2017-08-19T12:59:26.635Z,19.50
2017-08-19T13:01:54.971Z,19.60
2017-08-19T13:04:24.057Z,19.90
2017-08-19T13:06:52.683Z,19.90
2017-08-19T13:09:21.768Z,20.10
2017-08-19T13:11:50.060Z,20.10
2017-08-19T13:14:18.348Z,20.20
2017-08-19T13:16:46.616Z,20.10
2017-08-19T13:19:14.858Z,20.10
2017-08-19T13:21:43.153Z,19.80
2017-08-19T13:24:12.195Z,20.20
2017-08-19T13:26:40.546Z,20.20
2017-08-19T13:29:08.862Z,20.30
2017-08-19T13:31:37.166Z,20.20
2017-08-19T13:34:05.497Z,20.00
2017-08-19T13:36:33.824Z,20.00
2017-08-19T13:39:02.144Z,20.30
2017-08-19T13:41:30.491Z,20.30
2017-08-19T13:43:58.900Z,20.30
2017-08-19T13:46:27.175Z,20.40
2017-08-19T13:48:55.522Z,20.30
2017-08-19T13:51:23.873Z,20.30
2017-08-19T13:53:52.167Z,20.10
2017-08-19T13:56:20.438Z,19.80
2017-08-19T13:58:49.508Z,20.00
2017-08-19T14:01:17.842Z,19.90
2017-08-19T14:03:46.167Z,20.10
2017-08-19T14:06:14.481Z,20.20
2017-08-19T14:08:42.864Z,20.10
2017-08-19T14:11:11.380Z,20.10
2017-08-19T14:13:39.731Z,20.20
2017-08-19T14:16:08.792Z,20.30
2017-08-19T14:18:37.035Z,20.30
2017-08-19T14:21:05.300Z,20.30
2017-08-19T14:23:33.545Z,20.20
2017-08-19T14:26:02.649Z,20.20
2017-08-19T14:28:31.694Z,20.30
2017-08-19T14:30:59.966Z,20.20
2017-08-19T14:33:28.368Z,20.10
2017-08-19T14:35:56.827Z,19.80
2017-08-19T14:38:25.124Z,19.70
2017-08-19T14:40:53.447Z,19.40
2017-08-19T14:43:21.734Z,19.60
2017-08-19T14:45:50.092Z,19.80
2017-08-19T14:48:19.915Z,19.70
2017-08-19T14:50:48.217Z,19.80
2017-08-19T14:53:16.631Z,19.70
2017-08-19T14:55:44.975Z,19.60
2017-08-19T14:58:13.350Z,19.40
2017-08-19T15:00:42.376Z,19.30
2017-08-19T15:03:10.685Z,19.40
2017-08-19T15:05:38.945Z,19.60
2017-08-19T15:08:07.274Z,19.70
2017-08-19T15:10:35.616Z,19.70
2017-08-19T15:13:04.731Z,19.40
2017-08-19T15:15:33.144Z,19.30
2017-08-19T15:18:01.481Z,19.20
2017-08-19T15:20:29.743Z,19.20
2017-08-19T15:22:58.813Z,19.10
2017-08-19T15:25:27.139Z,19.10
2017-08-19T15:27:56.353Z,19.20
2017-08-19T15:30:24.625Z,19.20
2017-08-19T15:32:52.956Z,19.30
2017-08-19T15:35:21.300Z,19.40
2017-08-19T15:37:49.633Z,19.70
2017-08-19T15:40:18.695Z,20.10
2017-08-19T15:42:47.855Z,20.00
2017-08-19T15:45:16.217Z,20.30
2017-08-19T15:47:44.539Z,20.10
2017-08-19T15:50:12.854Z,20.00
2017-08-19T15:52:41.200Z,20.00
2017-08-19T15:55:09.514Z,19.90
2017-08-19T15:57:37.744Z,20.00
2017-08-19T16:00:06.034Z,19.90
2017-08-19T16:02:34.474Z,19.70
2017-08-19T16:05:03.122Z,19.40
2017-08-19T16:07:31.579Z,19.40
2017-08-19T16:09:59.848Z,19.30
2017-08-19T16:12:28.212Z,19.30
2017-08-19T16:14:57.226Z,19.40
2017-08-19T16:17:25.482Z,19.30
2017-08-19T16:19:54.523Z,19.10
2017-08-19T16:22:22.861Z,19.10
2017-08-19T16:24:51.903Z,18.90
2017-08-19T16:27:20.267Z,18.90
2017-08-19T16:29:51.755Z,18.50
2017-08-19T16:32:23.173Z,18.40
2017-08-19T16:34:52.488Z,18.40
2017-08-19T16:37:20.843Z,18.40
2017-08-19T16:39:49.582Z,18.50
2017-08-19T16:42:18.623Z,18.40
2017-08-19T16:44:47.003Z,18.40
2017-08-19T16:47:15.351Z,18.30
2017-08-19T16:49:44.408Z,18.10
2017-08-19T16:52:12.749Z,18.10
2017-08-19T16:54:41.115Z,18.20
2017-08-19T16:57:09.393Z,18.30
2017-08-19T16:59:38.357Z,18.10
2017-08-19T17:02:06.668Z,17.90
2017-08-19T17:04:34.933Z,17.80
2017-08-19T17:07:03.305Z,17.60
2017-08-19T17:09:31.672Z,17.40
2017-08-19T17:12:00.044Z,17.50
2017-08-19T17:14:28.337Z,17.50
2017-08-19T17:16:56.772Z,17.80
2017-08-19T17:19:25.103Z,17.90
2017-08-19T17:21:54.186Z,18.00
2017-08-19T17:24:23.253Z,18.00
2017-08-19T17:26:51.631Z,18.00
2017-08-19T17:29:19.877Z,18.20
2017-08-19T17:31:48.434Z,18.00
2017-08-19T17:34:17.011Z,18.00
2017-08-19T17:36:46.651Z,17.70
2017-08-19T17:39:18.501Z,17.60
2017-08-19T17:41:47.607Z,17.60
2017-08-19T17:44:26.224Z,17.60
2017-08-19T17:46:55.052Z,17.50
2017-08-19T17:49:24.308Z,17.40
2017-08-19T17:51:52.581Z,17.30
2017-08-19T17:54:20.937Z,17.30
2017-08-19T17:56:49.248Z,17.40
2017-08-19T17:59:18.453Z,17.30
2017-08-19T18:01:47.221Z,17.30
2017-08-19T18:04:15.523Z,17.50
2017-08-19T18:06:43.832Z,17.50
2017-08-19T18:09:12.103Z,17.60
2017-08-19T18:11:40.545Z,17.60
2017-08-19T18:14:08.806Z,17.50
2017-08-19T18:16:37.857Z,17.40
2017-08-19T18:19:06.113Z,17.30
2017-08-19T18:21:34.773Z,17.40
2017-08-19T18:24:03.285Z,17.40
2017-08-19T18:26:31.585Z,17.30
2017-08-19T18:29:00.450Z,17.30
2017-08-19T18:31:29.118Z,17.10
2017-08-19T18:33:57.425Z,17.10
2017-08-19T18:36:25.653Z,17.10
2017-08-19T18:38:54.787Z,17.00
2017-08-19T18:41:23.076Z,17.00
2017-08-19T18:43:51.340Z,17.10
2017-08-19T18:46:19.581Z,17.10
2017-08-19T18:48:48.644Z,17.00
2017-08-19T18:51:16.912Z,17.00
2017-08-19T18:53:45.283Z,17.00
2017-08-19T18:56:13.562Z,17.00
2017-08-19T18:58:42.411Z,17.10
2017-08-19T19:01:10.689Z,17.10
2017-08-19T19:03:38.943Z,17.10
2017-08-19T19:06:07.212Z,17.00
2017-08-19T19:08:35.495Z,17.00
2017-08-19T19:11:03.940Z,16.90
2017-08-19T19:13:32.209Z,16.70
2017-08-19T19:16:00.561Z,16.70
2017-08-19T19:18:29.669Z,16.70
2017-08-19T19:20:57.984Z,16.70
2017-08-19T19:23:26.293Z,16.60
2017-08-19T19:25:55.399Z,16.60
2017-08-19T19:28:25.468Z,16.60
2017-08-19T19:30:53.705Z,16.60
2017-08-19T19:33:22.781Z,16.70
2017-08-19T19:35:51.845Z,16.60
2017-08-19T19:38:20.116Z,16.60
2017-08-19T19:40:48.439Z,16.60
2017-08-19T19:43:16.702Z,16.60
2017-08-19T19:45:45.759Z,16.50
2017-08-19T19:48:13.990Z,16.50
2017-08-19T19:50:43.022Z,16.50
2017-08-19T19:53:11.368Z,16.50
2017-08-19T19:55:40.403Z,16.60
2017-08-19T19:58:08.677Z,16.60
2017-08-19T20:00:36.978Z,16.50
2017-08-19T20:03:06.177Z,16.50
2017-08-19T20:05:34.711Z,16.40
2017-08-19T20:08:03.113Z,16.40
2017-08-19T20:10:31.397Z,16.40
2017-08-19T20:12:59.673Z,16.30
2017-08-19T20:15:27.945Z,16.30
2017-08-19T20:17:56.195Z,16.30
2017-08-19T20:20:24.519Z,16.40
2017-08-19T20:22:53.654Z,16.40
2017-08-19T20:25:21.898Z,16.20
2017-08-19T20:27:50.231Z,16.20
2017-08-19T20:30:18.661Z,16.10
2017-08-19T20:32:46.992Z,15.90
2017-08-19T20:35:15.244Z,15.90
2017-08-19T20:37:43.524Z,16.00
2017-08-19T20:40:11.761Z,15.80
2017-08-19T20:42:40.057Z,15.60
2017-08-19T20:45:08.334Z,15.60
2017-08-19T20:47:36.591Z,15.50
2017-08-19T20:50:04.997Z,15.50
2017-08-19T20:52:33.284Z,15.50
2017-08-19T20:55:02.433Z,15.30
2017-08-19T20:57:30.642Z,15.40
2017-08-19T20:59:58.905Z,15.40
2017-08-19T21:02:27.186Z,15.40
2017-08-19T21:04:55.455Z,15.40
2017-08-19T21:07:23.816Z,15.40
2017-08-19T21:09:52.075Z,15.40
2017-08-19T21:12:21.109Z,15.40
2017-08-19T21:14:49.377Z,15.40
2017-08-19T21:17:17.656Z,15.40
2017-08-19T21:19:45.892Z,15.40
2017-08-19T21:22:14.197Z,15.40
2017-08-19T21:24:42.434Z,15.40
2017-08-19T21:27:11.612Z,15.30
2017-08-19T21:29:39.941Z,15.20
2017-08-19T21:32:08.161Z,15.20
2017-08-19T21:34:37.180Z,15.30
2017-08-19T21:37:06.341Z,15.30
2017-08-19T21:39:34.656Z,15.30
2017-08-19T21:42:02.987Z,15.20
2017-08-19T21:44:31.208Z,15.00
2017-08-19T21:47:00.274Z,15.00
2017-08-19T21:49:28.503Z,15.00
2017-08-19T21:51:56.751Z,15.10
2017-08-19T21:54:25.024Z,15.00
2017-08-19T21:56:53.272Z,15.00
2017-08-19T21:59:21.555Z,15.00
2017-08-19T22:01:49.791Z,15.10
2017-08-19T22:04:18.068Z,15.10
2017-08-19T22:06:46.350Z,15.00
2017-08-19T22:09:14.599Z,14.90
2017-08-19T22:11:43.633Z,14.80
2017-08-19T22:14:11.910Z,14.80
2017-08-19T22:16:40.196Z,14.80
2017-08-19T22:19:08.475Z,14.80
2017-08-19T22:21:36.706Z,14.70
2017-08-19T22:24:04.995Z,14.70
2017-08-19T22:26:33.266Z,14.70
2017-08-19T22:29:02.291Z,14.70
2017-08-19T22:31:30.610Z,14.70
2017-08-19T22:33:58.873Z,14.70
2017-08-19T22:36:27.107Z,14.60
2017-08-19T22:38:55.351Z,14.60
2017-08-19T22:41:23.625Z,14.60
2017-08-19T22:43:51.896Z,14.60
2017-08-19T22:46:20.776Z,14.50
2017-08-19T22:48:49.039Z,14.50
2017-08-19T22:51:17.310Z,14.50
2017-08-19T22:53:45.598Z,14.50
2017-08-19T22:56:13.838Z,14.50
2017-08-19T22:58:42.883Z,14.40
2017-08-19T23:01:11.163Z,14.40
2017-08-19T23:03:40.190Z,14.50
2017-08-19T23:06:19.312Z,14.40
2017-08-19T23:08:48.409Z,14.50
2017-08-19T23:11:16.655Z,14.50
2017-08-19T23:13:44.904Z,14.50
2017-08-19T23:16:13.150Z,14.40
2017-08-19T23:18:41.415Z,14.40
2017-08-19T23:21:09.664Z,14.40
2017-08-19T23:23:37.913Z,14.40
2017-08-19T23:26:06.415Z,14.40
2017-08-19T23:28:35.114Z,14.40
2017-08-19T23:31:03.419Z,14.40
2017-08-19T23:33:32.432Z,14.40
2017-08-19T23:36:00.690Z,14.30
2017-08-19T23:38:29.722Z,14.40
2017-08-19T23:40:57.990Z,14.40
2017-08-19T23:43:26.262Z,14.40
2017-08-19T23:45:54.536Z,14.40
2017-08-19T23:48:22.852Z,14.30
2017-08-19T23:50:51.101Z,14.30
2017-08-19T23:53:19.494Z,14.30
2017-08-19T23:55:47.722Z,14.20
2017-08-19T23:58:16.731Z,14.00
